In Rescue
 
Open Full Screen Window  High Contrast Mode
Wind Gusting 00 knots
07
November 29, 2022 9:19 AM EST
Present Weather: Mist
Weather Information
Wind Direction
  140 °
Wind Speed
  07 kt (8 mph)
Wind Gust
  00 kt (0 mph)
Altimeter
30.00 in
Visibility
5 SM
Temperature
05° C
41° F
Dewpoint
04° C
39° F
Humidity
93%
1hr Rain Fall
00.00 in.
24hr Rain Fall
00.00 in.
Sky Condition
Overcast @ 900 ft
IFR

METAR KOZW 291419Z AUTO 14007KT 5SM BR OVC009 05/04 A3000 RMK AO2 T00510040

FAA Disclaimer: The data displayed is for advisory purposes only and is not to be used for flight planning or operations.